Terminal Aerodrome Forecast
Issued by NWS Sterling, VA

Home | Current Version | Previous Version | Text Only | Print | Product List | Glossary On
Versions: 1 2 3 4 5 6 7 8 9 10 11 12 13 14 15 16 17 18 19 20 21 22
000
FTUS41 KLWX 190859 AAA
TAFBWI
TAF AMD
KBWI 190859Z 1909/2012 05009KT P6SM BKN200
     FM191700 10012KT P6SM SCT200
     FM192200 10012KT P6SM -RA OVC090
     FM200200 09015KT 5SM -RA OVC025
     FM200400 09017KT 3SM RA BR OVC010=

USA.gov is the U.S. government's official web portal to all federal, state and local government web resources and services.